Stropkov, Slovakia

8:00 PM CEST on July 30, 2014 (GMT +0200)
IPODKARP8 Elev 1263 ft | 49.51 °N, 21.50 °E | Change Station

Current weather conditions updated 47 seconds ago

Clear
Clear
72.7 °F
Feels Like 72 °F
N
1.2
Wind Variable Wind from South
Gusts 1.2 mph

Tomorrow is forecast to be Warmer than today. Thunderstorms developing in the afternoon.

Today
High -- | Low -- °F
--% Chance of Precip.
Yesterday
High -- | Low -- °F
Precip. -- in
5:02 AM 8:16 PM
Waxing Crescent, 13% visible
Pressure 29.80 in
Visibility -9999.0 miles
Clouds
Heat Index 72 °F
Dew Point 68 °F
Humidity 83%
Rainfall -999.00 in
Snow Depth Not available.
UV Not available.
Pollen Not available.
Air Quality Not available.
Flu Activity Not available.
METAR LZKZ 301730Z 14002KT CAVOK 26/19 Q1009

More Conditions Fewer Conditions

Pressure 29.80 in
Visibility -9999.0 miles
Clouds
Heat Index 72 °F
Dew Point 68 °F
Humidity 83%
Rainfall -999.00 in
Snow Depth Not available.
UV Not available.
Pollen Not available.
Air Quality Not available.
Flu Activity Not available.
METAR LZKZ 301730Z 14002KT CAVOK 26/19 Q1009

More Conditions Fewer Conditions

10-Day Weather Forecast

Almanac

Astronomy

Jul. 30, 2014 Rise Set
Actual Time 5:02 AM CEST 8:16 PM CEST
Civil Twilight 4:24 AM CEST 8:54 PM CEST
Nautical Twilight 3:33 AM CEST 9:44 PM CEST
Astronomical Twilight 2:29 AM CEST 10:48 PM CEST
Moon 8:39 AM CEST 9:24 PM CEST
Length of Visible Light 16h 30m
Length of Day
15h 13m
Tomorrow will be 2m 47s shorter.
Waxing Crescent, 13% of the Moon is Illuminated
Today
Waxing Crescent
Aug 3
First Quarter
Aug 10
Full
Aug 17
Last Quarter
Aug 25
New

Today's Extremes

Country Highs Country Lows

Community

WunderPhotos

Upload Photos

1,739,147 photos uploaded!

Nearby

Snow Depth

Not available.

Earthquake Activity

City Distance Mag. Time & Date
No recent earthquake activity has been reported nearby.
Minimum magnitude displayed is 2.5.

Coastal Water Temperatures

Place Temperature
No Stations Reporting

Nearby Weather Stations

Station Location Temp. Heat Index Dew Point Humidity Wind Precip. Elev Updated Type
Krempna 72.7 °F 72 °F 68 °F 83% South  at  1.2 mph 0.00 in / hr 1263 ft 8:00 PM CEST Normal

Show More Stations Show Fewer Stations